createdAt,value
2019-01-19T00:01:26.579Z,13.30
2019-01-19T00:03:59.093Z,14.27
2019-01-19T00:06:45.298Z,13.53
2019-01-19T00:09:17.682Z,14.67
2019-01-19T00:12:05.386Z,14.70
2019-01-19T00:14:33.515Z,15.47
2019-01-19T00:17:06.518Z,14.27
2019-01-19T00:19:38.616Z,17.77
2019-01-19T00:22:08.819Z,16.50
2019-01-19T00:24:41.500Z,15.43
2019-01-19T00:27:11.269Z,15.13
2019-01-19T00:29:44.216Z,17.03
2019-01-19T00:32:22.609Z,17.63
2019-01-19T00:34:55.061Z,14.30
2019-01-19T00:37:25.134Z,14.20
2019-01-19T00:39:54.906Z,17.33
2019-01-19T00:42:24.752Z,17.73
2019-01-19T00:44:54.526Z,18.13
2019-01-19T00:47:24.403Z,18.77
2019-01-19T00:49:54.167Z,16.07
2019-01-19T00:52:41.909Z,15.70
2019-01-19T00:55:17.823Z,15.67
2019-01-19T00:58:01.411Z,17.67
2019-01-19T01:00:31.220Z,17.47
2019-01-19T01:03:00.992Z,16.50
2019-01-19T01:05:30.770Z,15.87
2019-01-19T01:08:03.560Z,18.77
2019-01-19T01:10:33.337Z,17.57
2019-01-19T01:13:06.152Z,17.07
2019-01-19T01:15:41.885Z,16.27
2019-01-19T01:18:29.526Z,16.27
2019-01-19T01:20:59.884Z,16.17
2019-01-19T01:23:41.908Z,15.53
2019-01-19T01:26:28.386Z,15.20
2019-01-19T01:28:58.214Z,17.97
2019-01-19T01:31:36.817Z,16.07
2019-01-19T01:34:12.826Z,15.47
2019-01-19T01:36:42.612Z,16.37
2019-01-19T01:39:12.415Z,14.87
2019-01-19T01:41:42.169Z,15.73
2019-01-19T01:44:28.792Z,16.20
2019-01-19T01:47:01.515Z,15.83
2019-01-19T01:49:34.233Z,14.40
2019-01-19T01:52:09.740Z,15.23
2019-01-19T01:54:39.495Z,14.17
2019-01-19T01:57:09.093Z,13.97
2019-01-19T01:59:55.544Z,15.43
2019-01-19T02:02:37.487Z,13.63
2019-01-19T02:05:13.284Z,14.13
2019-01-19T02:07:43.055Z,14.93
2019-01-19T02:10:19.026Z,14.50
2019-01-19T02:12:48.798Z,14.37
2019-01-19T02:15:24.726Z,15.40
2019-01-19T02:17:54.495Z,14.40
2019-01-19T02:20:24.343Z,14.77
2019-01-19T02:22:57.057Z,16.60
2019-01-19T02:25:26.805Z,14.90
2019-01-19T02:27:59.630Z,14.53
2019-01-19T02:30:38.620Z,13.53
2019-01-19T02:33:14.588Z,13.10
2019-01-19T02:35:48.657Z,13.27
2019-01-19T02:38:15.769Z,13.17
2019-01-19T02:40:48.036Z,13.30
2019-01-19T02:43:17.850Z,12.67
2019-01-19T02:45:53.063Z,12.83
2019-01-19T02:48:31.458Z,12.40
2019-01-19T02:51:06.991Z,14.03
2019-01-19T02:53:36.794Z,11.33
2019-01-19T02:56:09.393Z,14.27
2019-01-19T02:58:39.198Z,11.80
2019-01-19T03:01:18.054Z,12.50
2019-01-19T03:03:56.459Z,11.80
2019-01-19T03:06:32.188Z,11.97
2019-01-19T03:09:07.837Z,12.13
2019-01-19T03:11:37.588Z,12.30
2019-01-19T03:14:07.352Z,12.37
2019-01-19T03:16:40.070Z,11.13
2019-01-19T03:19:15.658Z,12.97
2019-01-19T03:21:45.387Z,12.30
2019-01-19T03:24:27.192Z,11.97
2019-01-19T03:26:56.980Z,13.27
2019-01-19T03:29:29.179Z,11.77
2019-01-19T03:31:58.935Z,12.23
2019-01-19T03:34:29.173Z,11.57
2019-01-19T03:37:15.132Z,13.60
2019-01-19T03:39:47.446Z,11.47
2019-01-19T03:42:26.591Z,13.43
2019-01-19T03:45:02.497Z,10.73
2019-01-19T03:47:35.206Z,10.63
2019-01-19T03:50:08.018Z,9.87
2019-01-19T03:52:46.841Z,11.17
2019-01-19T03:55:34.857Z,10.33
2019-01-19T03:58:07.807Z,11.80
2019-01-19T04:00:37.702Z,11.20
2019-01-19T04:03:07.461Z,10.33
2019-01-19T04:05:37.235Z,10.40
2019-01-19T04:08:23.621Z,12.17
2019-01-19T04:10:56.300Z,12.27
2019-01-19T04:13:42.687Z,9.30
2019-01-19T04:16:12.462Z,10.73
2019-01-19T04:18:45.231Z,10.83
2019-01-19T04:21:21.023Z,9.63
2019-01-19T04:23:50.894Z,11.23
2019-01-19T04:26:20.753Z,11.13
2019-01-19T04:28:49.259Z,10.37
2019-01-19T04:31:17.429Z,11.17
2019-01-19T04:33:45.943Z,10.43
2019-01-19T04:36:21.538Z,10.33
2019-01-19T04:39:05.496Z,10.53
2019-01-19T04:41:33.640Z,9.07
2019-01-19T04:44:01.854Z,10.60
2019-01-19T04:46:29.989Z,10.73
2019-01-19T04:48:58.302Z,9.13
2019-01-19T04:51:26.440Z,9.87
2019-01-19T04:53:54.641Z,9.43
2019-01-19T04:56:22.761Z,9.40
2019-01-19T04:58:50.896Z,10.50
2019-01-19T05:01:19.027Z,9.77
2019-01-19T05:03:47.346Z,9.57
2019-01-19T05:06:15.473Z,11.23
2019-01-19T05:08:43.705Z,10.67
2019-01-19T05:11:11.926Z,11.90
2019-01-19T05:13:40.074Z,9.23
2019-01-19T05:16:08.298Z,9.13
2019-01-19T05:18:36.457Z,9.20
2019-01-19T05:21:05.057Z,9.70
2019-01-19T05:23:33.733Z,10.00
2019-01-19T05:26:01.882Z,9.23
2019-01-19T05:28:30.016Z,9.80
2019-01-19T05:30:59.214Z,8.67
2019-01-19T05:33:27.807Z,9.43
2019-01-19T05:35:56.184Z,10.17
2019-01-19T05:38:24.298Z,9.03
2019-01-19T05:40:52.367Z,8.70
2019-01-19T05:43:20.482Z,9.13
2019-01-19T05:45:48.615Z,9.50
2019-01-19T05:48:16.743Z,8.57
2019-01-19T05:50:44.911Z,9.40
2019-01-19T05:53:13.151Z,9.63
2019-01-19T05:55:41.456Z,9.20
2019-01-19T05:58:09.566Z,9.57
2019-01-19T06:00:37.847Z,8.63
2019-01-19T06:03:06.132Z,9.33
2019-01-19T06:05:53.727Z,8.40
2019-01-19T06:08:21.928Z,9.70
2019-01-19T06:10:50.075Z,8.93
2019-01-19T06:13:18.219Z,8.27
2019-01-19T06:15:46.362Z,8.93
2019-01-19T06:18:14.507Z,8.33
2019-01-19T06:20:42.714Z,9.37
2019-01-19T06:23:10.858Z,7.73
2019-01-19T06:25:39.148Z,9.00
2019-01-19T06:28:07.267Z,8.10
2019-01-19T06:30:35.412Z,9.53
2019-01-19T06:33:03.623Z,9.43
2019-01-19T06:35:31.747Z,9.47
2019-01-19T06:37:59.882Z,9.47
2019-01-19T06:40:28.042Z,8.63
2019-01-19T06:42:56.161Z,9.87
2019-01-19T06:45:24.503Z,9.97
2019-01-19T06:47:52.690Z,10.30
2019-01-19T06:50:21.104Z,9.70
2019-01-19T06:52:49.407Z,8.40
2019-01-19T06:55:18.916Z,9.63
2019-01-19T06:57:47.064Z,7.40
2019-01-19T07:00:16.439Z,9.57
2019-01-19T07:02:44.573Z,9.47
2019-01-19T07:05:13.498Z,10.10
2019-01-19T07:07:41.873Z,8.90
2019-01-19T07:10:11.672Z,10.00
2019-01-19T07:12:39.807Z,9.43
2019-01-19T07:15:09.115Z,9.33
2019-01-19T07:17:37.302Z,9.23
2019-01-19T07:20:07.173Z,9.20
2019-01-19T07:22:35.303Z,9.57
2019-01-19T07:25:03.454Z,9.57
2019-01-19T07:27:31.683Z,10.60
2019-01-19T07:29:59.823Z,9.97
2019-01-19T07:32:28.144Z,9.87
2019-01-19T07:34:56.303Z,9.87
2019-01-19T07:37:24.458Z,8.87
2019-01-19T07:39:52.678Z,9.17
2019-01-19T07:42:20.819Z,8.47
2019-01-19T07:44:48.979Z,9.93
2019-01-19T07:47:17.542Z,9.90
2019-01-19T07:49:45.675Z,9.90
2019-01-19T07:52:13.994Z,11.53
2019-01-19T07:54:42.211Z,24.10
2019-01-19T07:57:10.353Z,28.97
2019-01-19T07:59:38.492Z,32.90
2019-01-19T08:02:06.743Z,33.20
2019-01-19T08:04:34.978Z,29.43
2019-01-19T08:07:03.178Z,34.23
2019-01-19T08:09:31.340Z,34.40
2019-01-19T08:11:59.498Z,34.93
2019-01-19T08:14:27.839Z,39.73
2019-01-19T08:16:56.098Z,35.20
2019-01-19T08:19:24.363Z,36.50
2019-01-19T08:21:52.459Z,37.40
2019-01-19T08:24:20.638Z,33.23
2019-01-19T08:26:48.792Z,35.50
2019-01-19T08:29:18.374Z,33.87
2019-01-19T08:31:46.800Z,28.73
2019-01-19T08:34:15.216Z,30.33
2019-01-19T08:36:43.460Z,32.27
2019-01-19T08:39:11.608Z,28.33
2019-01-19T08:41:39.751Z,27.30
2019-01-19T08:44:07.926Z,34.97
2019-01-19T08:46:36.146Z,28.93
2019-01-19T08:49:04.279Z,24.43
2019-01-19T08:51:32.465Z,23.53
2019-01-19T08:54:00.605Z,26.73
2019-01-19T08:56:29.040Z,25.43
2019-01-19T08:58:57.211Z,25.63
2019-01-19T09:01:25.342Z,21.20
2019-01-19T09:03:53.505Z,26.27
2019-01-19T09:06:23.278Z,24.20
2019-01-19T09:08:51.424Z,21.43
2019-01-19T09:11:19.570Z,19.73
2019-01-19T09:13:47.705Z,22.40
2019-01-19T09:16:15.848Z,28.17
2019-01-19T09:18:43.975Z,24.03
2019-01-19T09:21:12.268Z,23.90
2019-01-19T09:23:42.058Z,18.97
2019-01-19T09:26:10.184Z,24.33
2019-01-19T09:28:38.379Z,21.70
2019-01-19T09:31:06.534Z,22.33
2019-01-19T09:33:37.332Z,21.63
2019-01-19T09:36:07.178Z,17.07
2019-01-19T09:38:35.310Z,21.43
2019-01-19T09:41:03.458Z,18.30
2019-01-19T09:43:31.625Z,17.57
2019-01-19T09:45:59.801Z,19.47
2019-01-19T09:48:27.930Z,18.50
2019-01-19T09:50:56.000Z,19.23
2019-01-19T09:53:24.145Z,15.73
2019-01-19T09:55:52.274Z,17.27
2019-01-19T09:58:20.469Z,19.93
2019-01-19T10:00:48.593Z,15.93
2019-01-19T10:03:16.656Z,18.57
2019-01-19T10:05:45.224Z,15.10
2019-01-19T10:08:13.726Z,16.43
2019-01-19T10:10:42.234Z,18.43
2019-01-19T10:13:10.384Z,17.93
2019-01-19T10:15:58.029Z,15.13
2019-01-19T10:18:26.440Z,15.80
2019-01-19T10:20:55.207Z,14.60
2019-01-19T10:23:23.622Z,18.17
2019-01-19T10:25:51.928Z,16.57
2019-01-19T10:28:20.069Z,15.50
2019-01-19T10:30:48.289Z,15.00
2019-01-19T10:33:16.434Z,16.70
2019-01-19T10:35:44.799Z,14.10
2019-01-19T10:38:12.891Z,17.03
2019-01-19T10:40:41.049Z,13.27
2019-01-19T10:43:09.188Z,13.77
2019-01-19T10:45:37.341Z,16.73
2019-01-19T10:48:05.579Z,18.03
2019-01-19T10:50:33.717Z,14.37
2019-01-19T10:53:01.920Z,16.37
2019-01-19T10:55:30.091Z,13.97
2019-01-19T10:57:58.222Z,11.80
2019-01-19T11:00:27.987Z,13.17
2019-01-19T11:02:56.642Z,13.03
2019-01-19T11:05:26.398Z,12.17
2019-01-19T11:07:54.755Z,12.73
2019-01-19T11:10:27.689Z,14.23
2019-01-19T11:12:55.828Z,11.90
2019-01-19T11:15:24.173Z,11.63
2019-01-19T11:17:52.769Z,12.90
2019-01-19T11:20:22.532Z,12.30
2019-01-19T11:22:50.859Z,13.47
2019-01-19T11:25:19.218Z,12.03
2019-01-19T11:27:47.362Z,12.20
2019-01-19T11:30:17.198Z,12.13
2019-01-19T11:32:45.376Z,13.30
2019-01-19T11:35:13.583Z,10.90
2019-01-19T11:37:41.782Z,10.97
2019-01-19T11:40:11.563Z,12.30
2019-01-19T11:42:39.720Z,11.57
2019-01-19T11:45:09.567Z,11.17
2019-01-19T11:47:37.709Z,11.27
2019-01-19T11:50:07.416Z,12.33
2019-01-19T11:52:35.576Z,10.70
2019-01-19T11:55:05.254Z,12.27
2019-01-19T11:57:33.374Z,11.20
2019-01-19T12:00:01.510Z,9.00
2019-01-19T12:02:36.794Z,9.60
2019-01-19T12:04:59.508Z,8.23
2019-01-19T12:07:27.744Z,10.30
2019-01-19T12:09:58.697Z,10.97
2019-01-19T12:12:26.833Z,9.70
2019-01-19T12:14:54.968Z,8.87
2019-01-19T12:17:23.194Z,10.40
2019-01-19T12:19:51.349Z,10.10
2019-01-19T12:22:19.551Z,9.30
2019-01-19T12:24:47.760Z,8.60
2019-01-19T12:27:15.905Z,11.10
2019-01-19T12:29:43.974Z,10.77
2019-01-19T12:32:12.180Z,9.67
2019-01-19T12:34:40.390Z,10.27
2019-01-19T12:37:08.703Z,9.03
2019-01-19T12:39:36.836Z,8.90
2019-01-19T12:42:04.976Z,8.10
2019-01-19T12:44:33.117Z,9.57
2019-01-19T12:47:01.430Z,9.00
2019-01-19T12:49:29.544Z,10.03
2019-01-19T12:51:57.978Z,9.67
2019-01-19T12:54:26.171Z,9.77
2019-01-19T12:56:54.354Z,9.33
2019-01-19T12:59:22.632Z,8.90
2019-01-19T13:01:50.829Z,8.80
2019-01-19T13:04:19.070Z,9.43
2019-01-19T13:06:47.580Z,8.00
2019-01-19T13:09:15.969Z,7.97
2019-01-19T13:11:54.869Z,8.27
2019-01-19T13:14:23.310Z,7.03
2019-01-19T13:16:55.516Z,9.43
2019-01-19T13:19:25.931Z,9.97
2019-01-19T13:22:12.068Z,7.43
2019-01-19T13:24:47.680Z,7.77
2019-01-19T13:27:17.442Z,7.90
2019-01-19T13:29:47.214Z,8.00
2019-01-19T13:32:17.064Z,7.23
2019-01-19T13:34:55.571Z,8.33
2019-01-19T13:37:40.286Z,7.73
2019-01-19T13:40:10.035Z,6.90
2019-01-19T13:42:56.232Z,8.07
2019-01-19T13:45:31.613Z,7.97
2019-01-19T13:48:01.462Z,8.10
2019-01-19T13:50:33.846Z,8.07
2019-01-19T13:53:12.562Z,7.80
2019-01-19T13:55:53.924Z,7.13
2019-01-19T13:58:26.255Z,7.50
2019-01-19T14:01:01.686Z,8.07
2019-01-19T14:03:31.444Z,7.50
2019-01-19T14:06:01.455Z,5.93
2019-01-19T14:08:37.089Z,6.60
2019-01-19T14:11:18.561Z,7.10
2019-01-19T14:13:51.218Z,7.90
2019-01-19T14:16:23.661Z,6.70
2019-01-19T14:18:53.409Z,7.53
2019-01-19T14:21:35.252Z,6.10
2019-01-19T14:24:20.053Z,7.00
2019-01-19T14:27:02.071Z,7.17
2019-01-19T14:29:31.835Z,6.27
2019-01-19T14:32:17.886Z,6.37
2019-01-19T14:34:50.186Z,5.27
2019-01-19T14:37:22.736Z,6.80
2019-01-19T14:39:55.491Z,7.53
2019-01-19T14:42:27.999Z,7.30
2019-01-19T14:45:00.542Z,7.47
2019-01-19T14:47:36.085Z,6.30
2019-01-19T14:50:08.781Z,6.57
2019-01-19T14:52:41.593Z,7.90
2019-01-19T14:55:23.590Z,6.23
2019-01-19T14:57:53.344Z,5.43
2019-01-19T15:00:41.368Z,6.87
2019-01-19T15:03:14.160Z,6.80
2019-01-19T15:05:46.699Z,7.67
2019-01-19T15:08:16.473Z,6.00
2019-01-19T15:10:58.142Z,7.37
2019-01-19T15:13:46.004Z,6.60
2019-01-19T15:16:24.897Z,6.37
2019-01-19T15:19:11.170Z,6.23
2019-01-19T15:21:46.850Z,5.60
2019-01-19T15:24:16.726Z,6.77
2019-01-19T15:26:49.118Z,6.00
2019-01-19T15:29:24.654Z,6.40
2019-01-19T15:31:59.962Z,5.57
2019-01-19T15:34:41.776Z,6.37
2019-01-19T15:37:17.193Z,7.37
2019-01-19T15:39:47.023Z,5.87
2019-01-19T15:42:19.553Z,6.73
2019-01-19T15:44:49.602Z,7.67
2019-01-19T15:47:28.068Z,6.03
2019-01-19T15:49:57.935Z,6.67
2019-01-19T15:52:33.638Z,5.93
2019-01-19T15:55:03.578Z,5.43
2019-01-19T15:57:33.263Z,5.77
2019-01-19T16:00:19.762Z,6.60
2019-01-19T16:02:49.891Z,6.30
2019-01-19T16:05:19.651Z,7.77
2019-01-19T16:07:49.444Z,6.53
2019-01-19T16:10:25.252Z,7.10
2019-01-19T16:12:57.992Z,6.23
2019-01-19T16:15:30.896Z,6.73
2019-01-19T16:18:03.378Z,7.00
2019-01-19T16:20:33.147Z,6.17
2019-01-19T16:23:02.903Z,6.47
2019-01-19T16:25:35.787Z,7.20
2019-01-19T16:28:05.558Z,6.80
2019-01-19T16:30:35.584Z,7.53
2019-01-19T16:33:08.253Z,6.77
2019-01-19T16:35:38.012Z,6.77
2019-01-19T16:38:13.512Z,7.60
2019-01-19T16:40:43.327Z,7.07
2019-01-19T16:43:15.582Z,6.27
2019-01-19T16:45:45.345Z,6.70
2019-01-19T16:48:17.864Z,7.13
2019-01-19T16:51:04.020Z,6.70
2019-01-19T16:53:33.847Z,8.17
2019-01-19T16:56:06.374Z,7.10
2019-01-19T16:58:38.908Z,7.93
2019-01-19T17:01:24.816Z,7.23
2019-01-19T17:04:03.703Z,7.47
2019-01-19T17:06:36.352Z,7.53
2019-01-19T17:09:08.945Z,8.13
2019-01-19T17:11:38.712Z,8.93
2019-01-19T17:14:10.888Z,7.17
2019-01-19T17:16:40.774Z,6.80
2019-01-19T17:19:13.451Z,7.90
2019-01-19T17:21:55.448Z,7.93
2019-01-19T17:24:31.007Z,8.50
2019-01-19T17:27:13.113Z,8.57
2019-01-19T17:30:01.243Z,7.97
2019-01-19T17:32:40.166Z,8.00
2019-01-19T17:35:12.959Z,8.53
2019-01-19T17:37:48.900Z,7.90
2019-01-19T17:40:25.204Z,8.17
2019-01-19T17:42:57.644Z,7.23
2019-01-19T17:45:30.338Z,9.37
2019-01-19T17:48:00.078Z,8.60
2019-01-19T17:50:41.603Z,9.00
2019-01-19T17:53:14.044Z,9.33
2019-01-19T17:55:57.217Z,8.47
2019-01-19T17:58:28.076Z,9.13
2019-01-19T18:00:57.899Z,8.90
2019-01-19T18:03:27.689Z,8.27
2019-01-19T18:05:59.931Z,9.90
2019-01-19T18:08:32.518Z,8.40
2019-01-19T18:11:11.257Z,9.80
2019-01-19T18:13:47.020Z,8.87
2019-01-19T18:16:16.797Z,7.83
2019-01-19T18:18:55.564Z,9.00
2019-01-19T18:21:43.243Z,8.60
2019-01-19T18:24:28.117Z,9.67
2019-01-19T18:27:07.053Z,8.90
2019-01-19T18:29:45.695Z,8.53
2019-01-19T18:32:15.454Z,9.30
2019-01-19T18:34:51.441Z,10.00
2019-01-19T18:37:36.420Z,9.43
2019-01-19T18:40:18.381Z,11.80
2019-01-19T18:42:48.144Z,9.53
2019-01-19T18:45:20.710Z,9.20
2019-01-19T18:47:53.349Z,10.20
2019-01-19T18:50:39.922Z,9.10
2019-01-19T18:53:12.182Z,8.90
2019-01-19T18:55:42.090Z,10.73
2019-01-19T18:58:17.681Z,10.37
2019-01-19T19:00:47.425Z,10.33
2019-01-19T19:03:32.048Z,9.97
2019-01-19T19:06:01.823Z,11.17
2019-01-19T19:08:37.201Z,10.07
2019-01-19T19:11:07.028Z,10.30
2019-01-19T19:13:39.357Z,9.77
2019-01-19T19:16:26.896Z,10.13
2019-01-19T19:18:59.325Z,10.43
2019-01-19T19:21:40.714Z,10.67
2019-01-19T19:24:15.921Z,10.33
2019-01-19T19:27:01.992Z,10.30
2019-01-19T19:29:40.615Z,10.90
2019-01-19T19:32:28.294Z,11.23
2019-01-19T19:35:00.715Z,10.93
2019-01-19T19:37:34.108Z,10.87
2019-01-19T19:40:22.087Z,10.63
2019-01-19T19:42:57.862Z,10.87
2019-01-19T19:45:33.623Z,8.87
2019-01-19T19:48:20.043Z,9.40
2019-01-19T19:50:55.982Z,11.50
2019-01-19T19:53:24.129Z,10.03
2019-01-19T19:55:52.049Z,10.10
2019-01-19T19:58:20.182Z,11.17
2019-01-19T20:00:48.401Z,11.00
2019-01-19T20:03:16.611Z,10.97
2019-01-19T20:05:45.185Z,11.50
2019-01-19T20:08:13.338Z,10.30
2019-01-19T20:10:41.483Z,11.73
2019-01-19T20:13:09.617Z,10.63
2019-01-19T20:15:37.786Z,12.37
2019-01-19T20:18:06.229Z,11.43
2019-01-19T20:20:34.549Z,11.23
2019-01-19T20:23:02.660Z,11.10
2019-01-19T20:25:30.790Z,11.47
2019-01-19T20:27:58.924Z,12.17
2019-01-19T20:30:27.146Z,12.10
2019-01-19T20:32:55.284Z,12.83
2019-01-19T20:35:23.527Z,12.97
2019-01-19T20:37:51.726Z,12.30
2019-01-19T20:40:24.344Z,13.53
2019-01-19T20:42:49.935Z,12.83
2019-01-19T20:45:18.107Z,12.30
2019-01-19T20:47:46.258Z,12.97
2019-01-19T20:50:14.489Z,12.83
2019-01-19T20:52:42.701Z,13.53
2019-01-19T20:55:11.212Z,14.37
2019-01-19T20:57:39.334Z,12.70
2019-01-19T21:00:10.030Z,14.40
2019-01-19T21:02:38.166Z,12.43
2019-01-19T21:05:06.406Z,11.87
2019-01-19T21:07:35.222Z,14.13
2019-01-19T21:10:04.736Z,13.03
2019-01-19T21:12:33.068Z,13.93
2019-01-19T21:15:01.235Z,14.40
2019-01-19T21:17:29.569Z,12.23
2019-01-19T21:19:57.771Z,13.13
2019-01-19T21:22:25.984Z,13.93
2019-01-19T21:24:54.127Z,14.30
2019-01-19T21:27:22.268Z,14.43
2019-01-19T21:29:50.586Z,13.70
2019-01-19T21:32:18.728Z,16.17
2019-01-19T21:34:46.864Z,12.97
2019-01-19T21:37:15.113Z,12.70
2019-01-19T21:39:43.253Z,14.00
2019-01-19T21:42:11.418Z,16.43
2019-01-19T21:44:39.634Z,14.63
2019-01-19T21:47:07.772Z,14.53
2019-01-19T21:49:36.014Z,14.77
2019-01-19T21:52:04.427Z,13.97
2019-01-19T21:54:32.853Z,14.23
2019-01-19T21:57:02.587Z,13.97
2019-01-19T21:59:30.718Z,15.30
2019-01-19T22:01:58.853Z,16.30
2019-01-19T22:04:26.999Z,16.30
2019-01-19T22:06:55.244Z,13.30
2019-01-19T22:09:23.393Z,16.50
2019-01-19T22:11:51.527Z,15.50
2019-01-19T22:14:19.678Z,14.40
2019-01-19T22:16:47.908Z,14.33
2019-01-19T22:19:16.117Z,15.10
2019-01-19T22:21:44.262Z,16.50
2019-01-19T22:24:12.428Z,15.07
2019-01-19T22:26:41.554Z,15.37
2019-01-19T22:29:09.722Z,15.83
2019-01-19T22:31:37.970Z,14.13
2019-01-19T22:34:06.321Z,17.33
2019-01-19T22:36:34.463Z,15.10
2019-01-19T22:39:02.672Z,18.13
2019-01-19T22:41:31.264Z,15.90
2019-01-19T22:43:59.831Z,16.20
2019-01-19T22:46:29.374Z,16.37
2019-01-19T22:48:57.832Z,15.90
2019-01-19T22:51:25.983Z,15.80
2019-01-19T22:53:54.119Z,16.00
2019-01-19T22:56:22.496Z,15.00
2019-01-19T22:58:50.700Z,15.20
2019-01-19T23:01:23.414Z,15.03
2019-01-19T23:03:51.598Z,18.13
2019-01-19T23:06:19.732Z,17.20
2019-01-19T23:08:47.868Z,15.97
2019-01-19T23:11:16.037Z,16.63
2019-01-19T23:13:44.255Z,17.73
2019-01-19T23:16:12.460Z,16.30
2019-01-19T23:18:40.709Z,16.13
2019-01-19T23:21:08.899Z,17.67
2019-01-19T23:23:37.094Z,18.30
2019-01-19T23:26:05.573Z,18.10
2019-01-19T23:28:33.701Z,17.23
2019-01-19T23:31:01.963Z,16.13
2019-01-19T23:33:30.108Z,17.93
2019-01-19T23:35:58.294Z,18.40
2019-01-19T23:38:26.483Z,19.10
2019-01-19T23:40:54.684Z,17.37
2019-01-19T23:43:22.810Z,17.67
2019-01-19T23:45:50.895Z,17.63
2019-01-19T23:48:19.031Z,15.43
2019-01-19T23:50:47.182Z,17.47
2019-01-19T23:53:15.405Z,16.73
2019-01-19T23:55:43.621Z,18.57
2019-01-19T23:58:11.786Z,17.57
